createdAt,value
2023-12-12T00:00:01.604Z,23.60
2023-12-12T00:02:04.380Z,25.98
2023-12-12T00:04:07.241Z,8.05
2023-12-12T00:06:10.259Z,5.05
2023-12-12T00:08:13.037Z,9.23
2023-12-12T00:10:17.370Z,7.72
2023-12-12T00:12:19.224Z,3.55
2023-12-12T00:14:22.179Z,7.05
2023-12-12T00:16:25.172Z,3.85
2023-12-12T00:18:28.020Z,5.82
2023-12-12T00:20:30.868Z,5.35
2023-12-12T00:22:33.693Z,8.00
2023-12-12T00:24:36.449Z,5.30
2023-12-12T00:26:40.557Z,3.55
2023-12-12T00:28:42.364Z,6.90
2023-12-12T00:30:45.152Z,4.05
2023-12-12T00:32:46.932Z,5.22
2023-12-12T00:34:50.015Z,6.32
2023-12-12T00:36:51.860Z,5.35
2023-12-12T00:38:54.647Z,5.50
2023-12-12T00:40:57.750Z,3.35
2023-12-12T00:43:00.914Z,3.90
2023-12-12T00:45:03.784Z,5.38
2023-12-12T00:47:06.724Z,5.13
2023-12-12T00:49:09.684Z,6.13
2023-12-12T00:51:12.954Z,4.60
2023-12-12T00:53:15.750Z,3.53
2023-12-12T00:55:18.554Z,4.25
2023-12-12T00:57:22.686Z,6.28
2023-12-12T00:59:26.820Z,5.07
2023-12-12T01:01:28.632Z,4.95
2023-12-12T01:03:31.476Z,4.90
2023-12-12T01:05:34.278Z,5.80
2023-12-12T01:07:36.339Z,3.08
2023-12-12T01:09:40.347Z,3.80
2023-12-12T01:11:43.124Z,5.82
2023-12-12T01:13:45.989Z,4.15
2023-12-12T01:15:50.162Z,5.40
2023-12-12T01:17:53.063Z,4.47
2023-12-12T01:19:55.925Z,3.83
2023-12-12T01:21:58.774Z,6.32
2023-12-12T01:24:01.823Z,6.20
2023-12-12T01:26:03.804Z,2.17
2023-12-12T01:28:06.613Z,4.15
2023-12-12T01:30:10.087Z,3.95
2023-12-12T01:32:14.228Z,4.95
2023-12-12T01:34:17.100Z,3.80
2023-12-12T01:36:20.075Z,4.70
2023-12-12T01:38:22.988Z,5.22
2023-12-12T01:40:25.895Z,4.18
2023-12-12T01:42:28.632Z,4.40
2023-12-12T01:44:31.411Z,4.10
2023-12-12T01:46:36.543Z,3.95
2023-12-12T01:48:41.965Z,4.80
2023-12-12T01:50:44.863Z,5.50
2023-12-12T01:52:47.695Z,3.28
2023-12-12T01:54:51.524Z,3.15
2023-12-12T01:56:55.732Z,5.03
2023-12-12T01:59:00.108Z,5.95
2023-12-12T02:01:02.391Z,4.78
2023-12-12T02:03:05.459Z,4.10
2023-12-12T02:05:10.523Z,4.47
2023-12-12T02:07:15.210Z,3.92
2023-12-12T02:09:17.995Z,4.25
2023-12-12T02:11:22.399Z,4.22
2023-12-12T02:13:25.258Z,5.25
2023-12-12T02:15:28.306Z,3.08
2023-12-12T02:17:31.295Z,4.38
2023-12-12T02:19:33.297Z,3.40
2023-12-12T02:21:37.472Z,4.85
2023-12-12T02:23:40.221Z,2.47
2023-12-12T02:25:43.114Z,3.70
2023-12-12T02:27:45.012Z,5.75
2023-12-12T02:29:47.816Z,2.60
2023-12-12T02:31:50.543Z,5.78
2023-12-12T02:33:53.354Z,2.83
2023-12-12T02:35:55.218Z,4.55
2023-12-12T02:37:59.360Z,1.88
2023-12-12T02:40:01.253Z,6.05
2023-12-12T02:42:04.444Z,4.50
2023-12-12T02:44:07.578Z,3.50
2023-12-12T02:46:10.360Z,3.63
2023-12-12T02:48:14.234Z,7.68
2023-12-12T02:50:17.232Z,4.50
2023-12-12T02:52:20.130Z,1.90
2023-12-12T02:54:24.283Z,4.47
2023-12-12T02:56:26.058Z,3.78
2023-12-12T02:58:28.861Z,3.45
2023-12-12T03:00:31.633Z,2.90
2023-12-12T03:02:35.153Z,3.25
2023-12-12T03:04:38.041Z,2.85
2023-12-12T03:06:40.822Z,3.88
2023-12-12T03:08:43.533Z,3.22
2023-12-12T03:10:49.239Z,6.38
2023-12-12T03:12:52.078Z,2.50
2023-12-12T03:14:53.860Z,2.15
2023-12-12T03:16:56.631Z,3.75
2023-12-12T03:18:59.484Z,4.45
2023-12-12T03:21:02.271Z,4.05
2023-12-12T03:23:05.061Z,5.53
2023-12-12T03:25:09.198Z,4.97
2023-12-12T03:27:13.450Z,3.58
2023-12-12T03:29:16.258Z,4.75
2023-12-12T03:31:18.982Z,2.53
2023-12-12T03:33:21.845Z,4.82
2023-12-12T03:35:23.644Z,5.35
2023-12-12T03:37:26.640Z,3.85
2023-12-12T03:39:29.396Z,3.03
2023-12-12T03:41:32.479Z,4.43
2023-12-12T03:43:36.646Z,4.55
2023-12-12T03:45:39.554Z,2.92
2023-12-12T03:47:42.359Z,4.50
2023-12-12T03:49:45.234Z,3.70
2023-12-12T03:51:48.476Z,2.78
2023-12-12T03:53:51.239Z,4.90
2023-12-12T03:55:53.942Z,2.53
2023-12-12T03:57:56.759Z,4.60
2023-12-12T04:00:00.925Z,3.67
2023-12-12T04:02:03.777Z,3.10
2023-12-12T04:04:06.630Z,3.53
2023-12-12T04:06:10.185Z,4.90
2023-12-12T04:08:12.984Z,11.38
2023-12-12T04:10:15.804Z,10.70
2023-12-12T04:12:18.564Z,6.55
2023-12-12T04:14:21.258Z,2.35
2023-12-12T04:16:25.334Z,2.80
2023-12-12T04:18:28.243Z,5.53
2023-12-12T04:20:31.181Z,3.20
2023-12-12T04:22:34.022Z,3.40
2023-12-12T04:24:37.901Z,3.80
2023-12-12T04:26:40.672Z,3.67
2023-12-12T04:28:43.678Z,5.25
2023-12-12T04:30:47.406Z,4.03
2023-12-12T04:32:50.587Z,3.30
2023-12-12T04:34:53.405Z,3.90
2023-12-12T04:36:56.202Z,4.85
2023-12-12T04:38:58.965Z,6.85
2023-12-12T04:41:02.188Z,5.25
2023-12-12T04:43:05.314Z,5.82
2023-12-12T04:45:09.193Z,5.55
2023-12-12T04:47:12.220Z,3.78
2023-12-12T04:49:16.369Z,3.35
2023-12-12T04:51:19.171Z,2.28
2023-12-12T04:53:21.933Z,4.07
2023-12-12T04:55:24.687Z,4.03
2023-12-12T04:57:26.441Z,5.47
2023-12-12T04:59:29.225Z,4.80
2023-12-12T05:01:32.478Z,4.60
2023-12-12T05:03:35.335Z,4.35
2023-12-12T05:05:38.500Z,6.70
2023-12-12T05:07:41.330Z,4.65
2023-12-12T05:09:44.027Z,5.88
2023-12-12T05:11:46.686Z,6.68
2023-12-12T05:13:49.521Z,13.30
2023-12-12T05:15:52.533Z,8.70
2023-12-12T05:17:55.467Z,6.13
2023-12-12T05:19:58.327Z,9.48
2023-12-12T05:22:01.481Z,7.53
2023-12-12T05:24:04.383Z,11.35
2023-12-12T05:26:07.573Z,9.77
2023-12-12T05:28:09.594Z,5.13
2023-12-12T05:30:13.838Z,7.95
2023-12-12T05:32:17.073Z,5.75
2023-12-12T05:34:20.137Z,6.95
2023-12-12T05:36:23.088Z,6.60
2023-12-12T05:38:27.358Z,9.38
2023-12-12T05:40:30.073Z,8.02
2023-12-12T05:42:32.912Z,10.90
2023-12-12T05:44:35.651Z,6.43
2023-12-12T05:46:38.367Z,7.28
2023-12-12T05:48:41.398Z,6.97
2023-12-12T05:50:44.264Z,7.80
2023-12-12T05:52:46.917Z,7.53
2023-12-12T05:54:50.954Z,10.07
2023-12-12T05:56:54.498Z,13.40
2023-12-12T05:58:57.199Z,13.00
2023-12-12T06:00:59.963Z,11.88
2023-12-12T06:03:03.098Z,10.75
2023-12-12T06:05:09.142Z,9.75
2023-12-12T06:07:12.109Z,10.13
2023-12-12T06:09:15.261Z,8.25
2023-12-12T06:11:21.203Z,6.93
2023-12-12T06:13:23.937Z,5.72
2023-12-12T06:15:26.700Z,6.65
2023-12-12T06:17:29.875Z,5.60
2023-12-12T06:19:32.939Z,5.28
2023-12-12T06:21:36.018Z,5.55
2023-12-12T06:23:38.674Z,5.03
2023-12-12T06:25:41.422Z,6.07
2023-12-12T06:27:45.530Z,5.30
2023-12-12T06:29:50.682Z,6.63
2023-12-12T06:31:54.004Z,4.88
2023-12-12T06:33:57.061Z,5.05
2023-12-12T06:36:00.126Z,4.28
2023-12-12T06:38:05.136Z,6.70
2023-12-12T06:40:11.198Z,4.05
2023-12-12T06:42:15.626Z,4.50
2023-12-12T06:44:19.840Z,4.82
2023-12-12T06:46:22.932Z,4.82
2023-12-12T06:48:26.111Z,6.57
2023-12-12T06:50:28.920Z,7.32
2023-12-12T06:52:31.783Z,7.55
2023-12-12T06:54:34.510Z,9.57
2023-12-12T06:56:37.212Z,10.20
2023-12-12T06:58:40.014Z,11.40
2023-12-12T07:00:44.814Z,14.32
2023-12-12T07:02:47.697Z,12.15
2023-12-12T07:04:50.512Z,9.95
2023-12-12T07:06:53.516Z,11.32
2023-12-12T07:08:56.713Z,7.60
2023-12-12T07:10:59.449Z,9.30
2023-12-12T07:13:02.189Z,7.68
2023-12-12T07:15:05.591Z,4.35
2023-12-12T07:17:09.635Z,5.25
2023-12-12T07:19:12.417Z,4.97
2023-12-12T07:21:16.226Z,4.18
2023-12-12T07:23:18.938Z,3.30
2023-12-12T07:25:22.534Z,3.55
2023-12-12T07:27:25.251Z,3.97
2023-12-12T07:29:27.951Z,6.20
2023-12-12T07:31:30.760Z,6.47
2023-12-12T07:33:34.851Z,3.47
2023-12-12T07:35:37.760Z,4.55
2023-12-12T07:37:39.674Z,4.00
2023-12-12T07:39:42.692Z,6.05
2023-12-12T07:41:44.796Z,6.30
2023-12-12T07:43:47.523Z,4.70
2023-12-12T07:45:50.306Z,7.10
2023-12-12T07:47:53.320Z,6.28
2023-12-12T07:49:57.784Z,3.63
2023-12-12T07:52:00.654Z,5.88
2023-12-12T07:54:04.620Z,4.18
2023-12-12T07:56:08.273Z,22.20
2023-12-12T07:58:11.176Z,17.88
2023-12-12T08:00:15.099Z,9.98
2023-12-12T08:02:16.925Z,18.70
2023-12-12T08:04:19.730Z,10.15
2023-12-12T08:06:23.855Z,6.47
2023-12-12T08:08:26.537Z,5.68
2023-12-12T08:10:29.347Z,7.72
2023-12-12T08:12:32.089Z,4.32
2023-12-12T08:14:34.855Z,4.63
2023-12-12T08:16:37.683Z,7.43
2023-12-12T08:18:41.034Z,4.45
2023-12-12T08:20:43.859Z,7.20
2023-12-12T08:22:47.907Z,6.88
2023-12-12T08:24:51.919Z,6.75
2023-12-12T08:26:55.176Z,5.85
2023-12-12T08:28:57.883Z,4.90
2023-12-12T08:31:00.690Z,6.95
2023-12-12T08:33:03.607Z,5.53
2023-12-12T08:35:08.517Z,5.45
2023-12-12T08:37:11.533Z,5.50
2023-12-12T08:39:15.611Z,7.70
2023-12-12T08:41:18.287Z,5.10
2023-12-12T08:43:21.001Z,6.20
2023-12-12T08:45:23.862Z,5.07
2023-12-12T08:47:30.004Z,5.47
2023-12-12T08:49:35.342Z,6.50
2023-12-12T08:51:38.222Z,4.40
2023-12-12T08:53:40.838Z,6.50
2023-12-12T08:55:46.385Z,5.72
2023-12-12T08:57:49.367Z,8.40
2023-12-12T08:59:52.434Z,6.05
2023-12-12T09:01:54.302Z,6.30
2023-12-12T09:03:57.602Z,7.57
2023-12-12T09:06:00.479Z,8.73
2023-12-12T09:08:03.254Z,9.75
2023-12-12T09:10:06.114Z,8.77
2023-12-12T09:12:10.753Z,7.85
2023-12-12T09:14:13.508Z,8.00
2023-12-12T09:16:16.316Z,7.20
2023-12-12T09:18:20.568Z,4.78
2023-12-12T09:20:23.852Z,5.97
2023-12-12T09:22:26.717Z,5.38
2023-12-12T09:24:29.694Z,6.65
2023-12-12T09:26:32.404Z,6.60
2023-12-12T09:28:36.553Z,6.28
2023-12-12T09:30:40.482Z,4.82
2023-12-12T09:32:43.319Z,5.00
2023-12-12T09:34:46.200Z,5.88
2023-12-12T09:36:49.013Z,7.13
2023-12-12T09:38:51.727Z,10.50
2023-12-12T09:40:54.648Z,8.77
2023-12-12T09:42:59.099Z,17.35
2023-12-12T09:45:06.789Z,16.58
2023-12-12T09:47:10.084Z,16.88
2023-12-12T09:49:13.535Z,10.55
2023-12-12T09:51:16.878Z,15.73
2023-12-12T09:53:20.983Z,15.05
2023-12-12T09:55:24.902Z,7.35
2023-12-12T09:57:29.714Z,5.82
2023-12-12T09:59:32.788Z,3.95
2023-12-12T10:01:37.386Z,3.60
2023-12-12T10:03:40.923Z,4.82
2023-12-12T10:05:53.698Z,4.20
2023-12-12T10:08:04.603Z,4.03
2023-12-12T10:10:14.879Z,6.03
2023-12-12T10:12:18.101Z,3.83
2023-12-12T10:14:36.788Z,5.30
2023-12-12T10:16:41.188Z,5.18
2023-12-12T10:18:48.368Z,4.50
2023-12-12T10:20:51.881Z,4.63
2023-12-12T10:22:55.110Z,4.45
2023-12-12T10:25:11.013Z,3.38
2023-12-12T10:27:22.087Z,6.45
2023-12-12T10:29:25.088Z,3.58
2023-12-12T10:31:28.281Z,4.38
2023-12-12T10:33:32.139Z,3.97
2023-12-12T10:35:34.962Z,4.18
2023-12-12T10:37:36.894Z,4.82
2023-12-12T10:39:44.695Z,3.90
2023-12-12T10:41:53.096Z,6.10
2023-12-12T10:43:58.062Z,6.10
2023-12-12T10:46:01.396Z,4.35
2023-12-12T10:48:07.921Z,4.43
2023-12-12T10:50:18.038Z,3.22
2023-12-12T10:52:21.036Z,4.68
2023-12-12T10:54:25.896Z,6.40
2023-12-12T10:56:36.776Z,5.75
2023-12-12T10:58:41.288Z,6.07
2023-12-12T11:00:45.057Z,7.22
2023-12-12T11:02:47.501Z,7.68
2023-12-12T11:04:52.182Z,8.27
2023-12-12T11:06:57.365Z,8.52
2023-12-12T11:09:00.259Z,10.88
2023-12-12T11:11:03.526Z,13.43
2023-12-12T11:13:07.615Z,13.20
2023-12-12T11:15:12.719Z,13.95
2023-12-12T11:17:16.206Z,16.42
2023-12-12T11:19:21.272Z,14.30
2023-12-12T11:21:51.618Z,13.13
2023-12-12T11:23:55.004Z,41.58
2023-12-12T11:25:58.223Z,22.85
2023-12-12T11:28:01.061Z,9.88
2023-12-12T11:30:02.972Z,10.82
2023-12-12T11:32:06.728Z,8.75
2023-12-12T11:34:13.695Z,8.18
2023-12-12T11:36:28.075Z,5.40
2023-12-12T11:38:33.078Z,4.78
2023-12-12T11:40:38.714Z,8.45
2023-12-12T11:42:44.015Z,5.68
2023-12-12T11:44:50.448Z,6.53
2023-12-12T11:46:53.027Z,6.75
2023-12-12T11:48:56.260Z,8.13
2023-12-12T11:50:58.204Z,5.22
2023-12-12T11:53:02.904Z,12.18
2023-12-12T11:55:06.038Z,10.05
2023-12-12T11:57:10.144Z,7.88
2023-12-12T11:59:12.949Z,8.55
2023-12-12T12:01:23.117Z,9.15
2023-12-12T12:03:26.929Z,6.22
2023-12-12T12:05:29.796Z,5.88
2023-12-12T12:07:32.650Z,5.78
2023-12-12T12:09:35.493Z,5.00
2023-12-12T12:11:37.859Z,6.47
2023-12-12T12:13:43.124Z,6.47
2023-12-12T12:15:50.685Z,6.25
2023-12-12T12:17:53.842Z,6.97
2023-12-12T12:19:58.549Z,10.88
2023-12-12T12:22:06.475Z,12.48
2023-12-12T12:24:08.483Z,13.77
2023-12-12T12:26:11.318Z,8.35
2023-12-12T12:28:14.321Z,8.25
2023-12-12T12:30:19.562Z,7.22
2023-12-12T12:32:22.367Z,6.38
2023-12-12T12:34:25.644Z,5.50
2023-12-12T12:36:38.604Z,10.43
2023-12-12T12:38:42.186Z,11.25
2023-12-12T12:40:44.983Z,36.50
2023-12-12T12:42:50.530Z,35.92
2023-12-12T12:44:55.190Z,20.55
2023-12-12T12:46:59.407Z,11.73
2023-12-12T12:49:02.369Z,13.65
2023-12-12T12:51:05.321Z,9.05
2023-12-12T12:53:08.094Z,12.57
2023-12-12T12:55:10.845Z,10.68
2023-12-12T12:57:14.085Z,11.18
2023-12-12T12:59:19.572Z,11.23
2023-12-12T13:01:24.185Z,8.95
2023-12-12T13:03:28.376Z,10.05
2023-12-12T13:05:31.221Z,13.93
2023-12-12T13:07:34.462Z,8.38
2023-12-12T13:09:37.991Z,9.32
2023-12-12T13:11:41.555Z,6.75
2023-12-12T13:13:44.745Z,10.30
2023-12-12T13:15:47.710Z,8.68
2023-12-12T13:17:50.471Z,5.05
2023-12-12T13:19:54.653Z,6.68
2023-12-12T13:21:57.799Z,8.23
2023-12-12T13:24:00.691Z,5.78
2023-12-12T13:26:02.515Z,4.65
2023-12-12T13:28:05.916Z,4.75
2023-12-12T13:30:11.762Z,5.63
2023-12-12T13:32:14.809Z,5.15
2023-12-12T13:34:17.759Z,5.03
2023-12-12T13:36:22.181Z,4.82
2023-12-12T13:38:24.948Z,2.70
2023-12-12T13:40:27.869Z,2.88
2023-12-12T13:42:31.157Z,1.90
2023-12-12T13:44:33.976Z,4.13
2023-12-12T13:46:38.097Z,5.45
2023-12-12T13:48:40.940Z,4.35
2023-12-12T13:50:42.737Z,2.50
2023-12-12T13:52:47.359Z,2.35
2023-12-12T13:54:50.142Z,6.70
2023-12-12T13:56:54.041Z,3.33
2023-12-12T13:59:04.027Z,3.33
2023-12-12T14:01:10.067Z,3.45
2023-12-12T14:03:11.923Z,7.65
2023-12-12T14:05:15.032Z,4.30
2023-12-12T14:07:19.431Z,3.00
2023-12-12T14:09:23.562Z,2.90
2023-12-12T14:11:27.611Z,3.58
2023-12-12T14:13:30.389Z,1.73
2023-12-12T14:15:33.189Z,1.50
2023-12-12T14:17:35.178Z,28.67
2023-12-12T14:19:38.216Z,13.10
2023-12-12T14:21:40.056Z,11.80
2023-12-12T14:23:44.874Z,26.88
2023-12-12T14:25:48.968Z,14.13
2023-12-12T14:27:52.852Z,7.57
2023-12-12T14:29:58.173Z,4.85
2023-12-12T14:32:00.952Z,3.45
2023-12-12T14:34:05.132Z,4.18
2023-12-12T14:36:08.783Z,4.10
2023-12-12T14:38:12.953Z,3.97
2023-12-12T14:40:15.447Z,4.32
2023-12-12T14:42:20.228Z,4.13
2023-12-12T14:44:23.014Z,3.33
2023-12-12T14:46:25.797Z,3.05
2023-12-12T14:48:31.061Z,3.17
2023-12-12T14:50:34.410Z,2.53
2023-12-12T14:52:39.578Z,3.08
2023-12-12T14:54:43.441Z,3.90
2023-12-12T14:56:46.216Z,2.88
2023-12-12T14:58:50.395Z,2.65
2023-12-12T15:00:53.244Z,5.78
2023-12-12T15:02:57.118Z,3.45
2023-12-12T15:04:59.888Z,5.63
2023-12-12T15:07:02.705Z,12.63
2023-12-12T15:09:06.514Z,10.32
2023-12-12T15:11:09.333Z,8.57
2023-12-12T15:13:12.163Z,7.80
2023-12-12T15:15:17.128Z,8.25
2023-12-12T15:17:20.031Z,7.05
2023-12-12T15:19:23.065Z,6.07
2023-12-12T15:21:26.472Z,4.95
2023-12-12T15:23:28.208Z,4.88
2023-12-12T15:25:36.263Z,5.70
2023-12-12T15:27:44.743Z,4.53
2023-12-12T15:29:53.119Z,5.82
2023-12-12T15:31:57.424Z,6.25
2023-12-12T15:34:00.526Z,5.40
2023-12-12T15:36:06.286Z,5.32
2023-12-12T15:38:09.069Z,6.18
2023-12-12T15:40:12.767Z,6.35
2023-12-12T15:42:16.324Z,5.00
2023-12-12T15:44:19.068Z,4.60
2023-12-12T15:46:21.016Z,4.30
2023-12-12T15:48:25.228Z,6.07
2023-12-12T15:50:28.518Z,6.95
2023-12-12T15:52:31.422Z,6.78
2023-12-12T15:54:34.347Z,9.68
2023-12-12T15:56:38.839Z,9.13
2023-12-12T15:58:41.689Z,8.43
2023-12-12T16:00:44.521Z,10.60
2023-12-12T16:02:47.882Z,15.82
2023-12-12T16:04:52.069Z,9.05
2023-12-12T16:06:54.927Z,7.80
2023-12-12T16:08:57.935Z,7.18
2023-12-12T16:10:59.812Z,8.60
2023-12-12T16:13:03.086Z,10.73
2023-12-12T16:15:06.706Z,8.60
2023-12-12T16:17:09.674Z,7.80
2023-12-12T16:19:12.591Z,8.15
2023-12-12T16:21:16.732Z,8.05
2023-12-12T16:23:19.515Z,8.48
2023-12-12T16:25:22.356Z,9.13
2023-12-12T16:27:25.140Z,9.20
2023-12-12T16:29:29.094Z,9.70
2023-12-12T16:31:32.114Z,9.00
2023-12-12T16:33:35.101Z,8.52
2023-12-12T16:35:37.901Z,9.20
2023-12-12T16:37:45.928Z,6.97
2023-12-12T16:39:48.692Z,7.78
2023-12-12T16:41:51.490Z,8.38
2023-12-12T16:43:54.286Z,10.13
2023-12-12T16:45:57.348Z,9.05
2023-12-12T16:48:01.051Z,10.38
2023-12-12T16:50:04.180Z,10.38
2023-12-12T16:52:07.823Z,9.35
2023-12-12T16:54:12.037Z,6.03
2023-12-12T16:56:15.198Z,5.65
2023-12-12T16:58:18.430Z,5.85
2023-12-12T17:00:23.141Z,6.50
2023-12-12T17:02:25.911Z,6.40
2023-12-12T17:04:29.956Z,5.38
2023-12-12T17:06:33.189Z,5.53
2023-12-12T17:08:36.852Z,5.85
2023-12-12T17:10:41.054Z,7.40
2023-12-12T17:12:43.146Z,8.90
2023-12-12T17:14:48.049Z,7.15
2023-12-12T17:16:51.297Z,6.43
2023-12-12T17:18:55.145Z,5.80
2023-12-12T17:20:57.934Z,5.55
2023-12-12T17:23:00.632Z,7.70
2023-12-12T17:25:04.175Z,6.38
2023-12-12T17:27:08.299Z,6.10
2023-12-12T17:29:11.054Z,6.00
2023-12-12T17:31:14.078Z,5.30
2023-12-12T17:33:16.175Z,6.05
2023-12-12T17:35:19.237Z,7.43
2023-12-12T17:37:22.239Z,8.02
2023-12-12T17:39:24.979Z,9.88
2023-12-12T17:41:28.259Z,10.02
2023-12-12T17:43:32.331Z,9.68
2023-12-12T17:45:35.701Z,8.90
2023-12-12T17:47:39.792Z,6.25
2023-12-12T17:49:44.568Z,7.57
2023-12-12T17:51:47.475Z,7.40
2023-12-12T17:53:50.331Z,8.27
2023-12-12T17:55:53.189Z,5.93
2023-12-12T17:57:56.019Z,7.03
2023-12-12T18:00:00.207Z,7.53
2023-12-12T18:02:03.439Z,5.75
2023-12-12T18:04:08.087Z,5.97
2023-12-12T18:06:11.102Z,5.63
2023-12-12T18:08:14.019Z,6.53
2023-12-12T18:10:16.966Z,4.95
2023-12-12T18:12:19.712Z,5.85
2023-12-12T18:14:22.862Z,4.15
2023-12-12T18:16:26.058Z,4.85
2023-12-12T18:18:29.942Z,3.30
2023-12-12T18:20:34.980Z,3.38
2023-12-12T18:22:37.840Z,1.40
2023-12-12T18:24:41.505Z,1.25
2023-12-12T18:26:44.266Z,3.05
2023-12-12T18:28:48.288Z,0.80
2023-12-12T18:30:55.816Z,0.70
2023-12-12T18:33:01.143Z,0.85
2023-12-12T18:35:04.419Z,0.65
2023-12-12T18:37:07.217Z,0.68
2023-12-12T18:39:10.402Z,0.65
2023-12-12T18:41:13.680Z,1.58
2023-12-12T18:43:17.217Z,0.80
2023-12-12T18:45:20.067Z,0.95
2023-12-12T18:47:23.366Z,0.60
2023-12-12T18:49:28.219Z,1.13
2023-12-12T18:51:31.117Z,1.60
2023-12-12T18:53:33.958Z,0.63
2023-12-12T18:55:37.965Z,1.25
2023-12-12T18:57:40.831Z,0.60
2023-12-12T18:59:44.392Z,1.50
2023-12-12T19:01:52.319Z,1.35
2023-12-12T19:03:59.069Z,0.57
2023-12-12T19:06:03.994Z,1.10
2023-12-12T19:08:07.328Z,0.60
2023-12-12T19:10:12.536Z,0.77
2023-12-12T19:12:15.487Z,0.52
2023-12-12T19:14:18.408Z,0.47
2023-12-12T19:16:22.816Z,0.40
2023-12-12T19:18:25.771Z,1.83
2023-12-12T19:20:28.655Z,4.53
2023-12-12T19:22:33.780Z,1.75
2023-12-12T19:24:37.016Z,2.75
2023-12-12T19:26:41.450Z,2.55
2023-12-12T19:28:44.791Z,3.65
2023-12-12T19:30:47.691Z,5.85
2023-12-12T19:32:49.669Z,4.78
2023-12-12T19:34:56.656Z,5.57
2023-12-12T19:37:00.038Z,6.72
2023-12-12T19:39:03.238Z,4.40
2023-12-12T19:41:08.246Z,3.30
2023-12-12T19:43:12.330Z,2.53
2023-12-12T19:45:15.835Z,3.10
2023-12-12T19:47:18.769Z,4.25
2023-12-12T19:49:21.917Z,3.60
2023-12-12T19:51:24.844Z,4.05
2023-12-12T19:53:27.618Z,3.55
2023-12-12T19:55:31.714Z,8.10
2023-12-12T19:57:35.004Z,3.70
2023-12-12T19:59:37.921Z,3.58
2023-12-12T20:01:40.805Z,3.00
2023-12-12T20:03:44.393Z,2.63
2023-12-12T20:05:47.280Z,3.13
2023-12-12T20:07:50.129Z,3.60
2023-12-12T20:09:52.960Z,5.15
2023-12-12T20:11:57.072Z,3.05
2023-12-12T20:13:59.831Z,5.63
2023-12-12T20:16:03.096Z,7.53
2023-12-12T20:18:06.305Z,3.50
2023-12-12T20:20:09.121Z,2.60
2023-12-12T20:22:12.016Z,2.50
2023-12-12T20:24:15.246Z,3.10
2023-12-12T20:26:18.437Z,3.80
2023-12-12T20:28:22.612Z,3.90
2023-12-12T20:30:25.607Z,3.00
2023-12-12T20:32:28.415Z,3.60
2023-12-12T20:34:31.215Z,3.10
2023-12-12T20:36:35.651Z,3.17
2023-12-12T20:38:39.596Z,4.20
2023-12-12T20:40:42.346Z,3.30
2023-12-12T20:42:44.224Z,21.23
2023-12-12T20:44:48.352Z,4.18
2023-12-12T20:46:51.430Z,3.30
2023-12-12T20:48:54.278Z,5.43
2023-12-12T20:50:57.067Z,3.47
2023-12-12T20:52:59.750Z,2.42
2023-12-12T20:55:04.016Z,3.65
2023-12-12T20:57:06.161Z,2.47
2023-12-12T20:59:08.976Z,1.80
2023-12-12T21:01:13.181Z,2.47
2023-12-12T21:03:16.021Z,1.55
2023-12-12T21:05:18.854Z,2.38
2023-12-12T21:07:21.779Z,1.55
2023-12-12T21:09:24.651Z,1.90
2023-12-12T21:11:27.425Z,1.95
2023-12-12T21:13:30.520Z,3.67
2023-12-12T21:15:33.404Z,4.25
2023-12-12T21:17:37.777Z,7.95
2023-12-12T21:19:40.819Z,6.18
2023-12-12T21:21:44.072Z,4.07
2023-12-12T21:23:47.254Z,1.42
2023-12-12T21:25:50.113Z,3.45
2023-12-12T21:27:52.874Z,3.70
2023-12-12T21:29:55.766Z,2.55
2023-12-12T21:31:58.472Z,3.67
2023-12-12T21:34:02.610Z,8.75
2023-12-12T21:36:05.114Z,3.45
2023-12-12T21:38:08.327Z,2.65
2023-12-12T21:40:11.504Z,8.48
2023-12-12T21:42:14.657Z,18.38
2023-12-12T21:44:17.441Z,4.47
2023-12-12T21:46:20.226Z,17.65
2023-12-12T21:48:23.517Z,7.22
2023-12-12T21:50:27.684Z,3.30
2023-12-12T21:52:30.851Z,7.30
2023-12-12T21:54:33.631Z,5.95
2023-12-12T21:56:36.457Z,5.28
2023-12-12T21:58:39.197Z,12.18
2023-12-12T22:00:44.126Z,7.55
2023-12-12T22:02:46.966Z,2.58
2023-12-12T22:04:49.726Z,2.30
2023-12-12T22:06:55.564Z,2.50
2023-12-12T22:08:58.302Z,3.33
2023-12-12T22:11:00.978Z,5.55
2023-12-12T22:13:02.705Z,9.93
2023-12-12T22:15:06.667Z,6.45
2023-12-12T22:17:09.382Z,2.75
2023-12-12T22:19:12.218Z,3.83
2023-12-12T22:21:15.818Z,3.45
2023-12-12T22:23:20.293Z,1.60
2023-12-12T22:25:23.020Z,0.75
2023-12-12T22:27:25.981Z,1.38
2023-12-12T22:29:29.352Z,0.65
2023-12-12T22:31:32.146Z,0.57
2023-12-12T22:33:37.979Z,0.47
2023-12-12T22:35:41.496Z,1.33
2023-12-12T22:37:44.231Z,0.40
2023-12-12T22:39:48.315Z,1.10
2023-12-12T22:41:51.020Z,1.33
2023-12-12T22:43:54.212Z,0.65
2023-12-12T22:45:57.081Z,0.75
2023-12-12T22:48:00.050Z,0.80
2023-12-12T22:50:03.049Z,2.75
2023-12-12T22:52:07.103Z,2.00
2023-12-12T22:54:09.924Z,0.70
2023-12-12T22:56:14.447Z,0.85
2023-12-12T22:58:16.326Z,0.30
2023-12-12T23:00:31.011Z,0.77
2023-12-12T23:02:34.390Z,0.70
2023-12-12T23:04:37.850Z,0.68
2023-12-12T23:06:40.647Z,0.70
2023-12-12T23:08:43.636Z,1.17
2023-12-12T23:10:46.976Z,1.17
2023-12-12T23:12:51.170Z,0.80
2023-12-12T23:14:53.873Z,0.60
2023-12-12T23:16:56.701Z,0.88
2023-12-12T23:18:59.556Z,0.80
2023-12-12T23:21:03.178Z,1.27
2023-12-12T23:23:06.312Z,0.43
2023-12-12T23:25:10.040Z,1.85
2023-12-12T23:27:11.914Z,1.08
2023-12-12T23:29:16.052Z,1.05
2023-12-12T23:31:19.081Z,2.33
2023-12-12T23:33:21.948Z,2.10
2023-12-12T23:35:25.223Z,2.47
2023-12-12T23:37:28.033Z,0.80
2023-12-12T23:39:30.847Z,4.05
2023-12-12T23:41:33.627Z,0.80
2023-12-12T23:43:37.472Z,1.80
2023-12-12T23:45:44.288Z,1.58
2023-12-12T23:47:47.206Z,0.50
2023-12-12T23:49:49.090Z,1.48
2023-12-12T23:51:52.197Z,2.80
2023-12-12T23:53:57.034Z,1.27
2023-12-12T23:56:00.066Z,1.02
2023-12-12T23:58:05.862Z,2.50
